Bethel, AK

11:46 PM AKDT on October 23, 2014 (GMT -0800)
Kwethluk AP, Kwethluk, AK | Change Station
CLOSE
Current Station
Airport
Location: Kwethluk AP, Kwethluk, AK,
Elevation: 26 ft
Nearby Weather Stations

Elev 26 ft 60.79 °N, 161.44 °W | Updated 50 minutes ago

Overcast
Overcast
34 °F
Feels Like 24 °F
N
15
Wind Variable Wind from WNW
Gusts 23 mph

Today
High -- | Low -- °F
--% Chance of Precip.
Yesterday
High -- | Low -- °F
Precip. -- in
9:48 AM 7:10 PM
New Moon, 0% visible
Pressure 29.74 in
Visibility 10.0 miles
Clouds Overcast 600 ft
Windchill 24 °F
Dew Point 34 °F
Humidity 100%
Rainfall 0.06 in
Snow Depth Not available.
UV 0 out of 12
Pollen Not available.
Air Quality Not available.
Flu Activity Sporadic
METAR PFKW 240656Z AUTO 29013G20KT 10SM OVC006 01/01 A2974 RMK AO2 SLP071 P0001 T00110011 FZRANO

More Conditions Fewer Conditions

Pressure 29.74 in
Visibility 10.0 miles
Clouds Overcast 600 ft
Windchill 24 °F
Dew Point 34 °F
Humidity 100%
Rainfall 0.06 in
Snow Depth Not available.
UV 0 out of 12
Pollen Not available.
Air Quality Not available.
Flu Activity Sporadic
METAR PFKW 240656Z AUTO 29013G20KT 10SM OVC006 01/01 A2974 RMK AO2 SLP071 P0001 T00110011 FZRANO

More Conditions Fewer Conditions

10-Day Weather Forecast

Almanac

Astronomy

Oct. 23, 2014 Rise Set
Actual Time 9:48 AM AKDT 7:10 PM AKDT
Civil Twilight 9:03 AM AKDT 7:55 PM AKDT
Nautical Twilight 8:14 AM AKDT 8:44 PM AKDT
Astronomical Twilight 7:24 AM AKDT 9:34 PM AKDT
Moon 9:38 AM AKDT (10/23) 7:16 PM AKDT (10/23)
Length of Visible Light 10h 51m
Length of Day
9h 21m
Tomorrow will be 5m 30s shorter.
New Moon, 0% of the Moon is Illuminated
Oct 24
New Moon
Oct 30
First Quarter
Nov 6
Full
Nov 14
Last Quarter
Nov 22
New

Community

WunderPhotos

Upload Photos

1,764,512 photos uploaded!

WunderBlogs® & News

Nearby

Snow Depth

Station Depth Elevation
Rocky Point 4 in 500 ft
Mcneil Canyon 1 in 1320 ft
Port Graham 0 in 300 ft
MF Bradley River 0 in 2300 ft
Point Mackenzie 1 in 200 ft

Earthquake Activity

City Distance Mag. Time & Date
No recent earthquake activity has been reported nearby.
Minimum magnitude displayed is 2.5.

Coastal Water Temperatures

Place Temperature
No Stations Reporting

Nearby Weather Stations